Ncc Najd — HZAK — position and weather

sailwx.info

Track history (hours):
 
Tides and Currents Weather Stations Pressure Air Temp Water Temp Dewpoint Dewpoint Depression Visibility Wind Speed Wind Dir Waves Ship Positions

Ncc Najd

Last reported at 2014-Nov-23 07:33 UTC. Time now 2014-Nov-26 18:40 UTC.
Position N 01°11' E 103°41'.

Length 183 m; draft 7.6 m.

Type: Ship. MMSI: 403579000.

Date/timePositionNaut miles runAvg speedWind from/ knotsBaromVisibWave heightAir tempDewpointWater temp
2014-Nov-23 07:33N 01°11' E 103°41'8 8.3
2014-Nov-23 06:33N 01°11' E 103°49'1313.0
2014-Nov-23 05:33N 01°16' E 104°02'1514.2
2014-Nov-23 04:29N 01°18' E 104°16'  
2014-Nov-17 21:25N 01°15' E 104°07'1112.5
2014-Nov-17 20:32N 01°13' E 103°56'7 6.7
2014-Nov-17 19:30N 01°13' E 103°49'1 0.7
2014-Nov-17 18:33N 01°12' E 103°49'1 1.1
2014-Nov-17 17:17N 01°12' E 103°48'0 0.0
2014-Nov-17 06:04N 01°12' E 103°48'1 1.7
2014-Nov-17 05:33N 01°12' E 103°49'9 8.6
2014-Nov-17 04:33N 01°13' E 103°40'  
2014-Nov-14 23:24N 01°15' E 103°43'4 4.0
2014-Nov-14 22:28N 01°12' E 103°41'0 0.2
2014-Nov-14 20:23N 01°12' E 103°41'0 0.0
2014-Nov-14 19:11N 01°12' E 103°41'0 0.2
2014-Nov-14 18:25N 01°12' E 103°41'6 7.3
2014-Nov-14 17:33N 01°17' E 103°44'0 0.0
2014-Nov-14 05:19N 01°18' E 103°44'0 0.0
2014-Nov-14 03:16N 01°18' E 103°44'0 0.2
2014-Nov-14 02:26N 01°18' E 103°44'3 3.1
2014-Nov-14 01:33N 01°16' E 103°46'  
Track history (hours):
 
Tides and Currents Weather Stations Pressure Air Temp Water Temp Dewpoint Dewpoint Depression Visibility Wind Speed Wind Dir Waves Ship Positions

Ncc Najd

Last reported at 2014-Nov-23 07:33 UTC. Time now 2014-Nov-26 18:40 UTC.
Position N 01°11' E 103°41'.

Length 183 m; draft 7.6 m.

Type: Ship. MMSI: 403579000.

Date/timePositionNaut miles runAvg speedWind from/ knotsBaromVisibWave heightAir tempDewpointWater temp
2014-Nov-23 07:33N 01°11' E 103°41'8 8.3
2014-Nov-23 06:33N 01°11' E 103°49'1313.0
2014-Nov-23 05:33N 01°16' E 104°02'1514.2
2014-Nov-23 04:29N 01°18' E 104°16'  
2014-Nov-17 21:25N 01°15' E 104°07'1112.5
2014-Nov-17 20:32N 01°13' E 103°56'7 6.7
2014-Nov-17 19:30N 01°13' E 103°49'1 0.7
2014-Nov-17 18:33N 01°12' E 103°49'1 1.1
2014-Nov-17 17:17N 01°12' E 103°48'0 0.0
2014-Nov-17 06:04N 01°12' E 103°48'1 1.7
2014-Nov-17 05:33N 01°12' E 103°49'9 8.6
2014-Nov-17 04:33N 01°13' E 103°40'  
2014-Nov-14 23:24N 01°15' E 103°43'4 4.0
2014-Nov-14 22:28N 01°12' E 103°41'0 0.2
2014-Nov-14 20:23N 01°12' E 103°41'0 0.0
2014-Nov-14 19:11N 01°12' E 103°41'0 0.2
2014-Nov-14 18:25N 01°12' E 103°41'6 7.3
2014-Nov-14 17:33N 01°17' E 103°44'0 0.0
2014-Nov-14 05:19N 01°18' E 103°44'0 0.0
2014-Nov-14 03:16N 01°18' E 103°44'0 0.2
2014-Nov-14 02:26N 01°18' E 103°44'3 3.1
2014-Nov-14 01:33N 01°16' E 103°46'  

Dump ship's entire track history